sensor_id;sensor_type;location;lat;lon;timestamp;P1;durP1;ratioP1;P2;durP2;ratioP2
1955;SDS011;978;48.314;11.562;2023-04-03T00:00:37;6.93;;;0.50;;
1955;SDS011;978;48.314;11.562;2023-04-03T00:03:03;6.90;;;0.50;;
1955;SDS011;978;48.314;11.562;2023-04-03T00:05:32;7.07;;;0.60;;
1955;SDS011;978;48.314;11.562;2023-04-03T00:07:59;6.87;;;0.50;;
1955;SDS011;978;48.314;11.562;2023-04-03T00:10:27;7.10;;;0.60;;
1955;SDS011;978;48.314;11.562;2023-04-03T00:12:53;7.03;;;0.60;;
1955;SDS011;978;48.314;11.562;2023-04-03T00:15:20;6.97;;;0.67;;
1955;SDS011;978;48.314;11.562;2023-04-03T00:17:47;6.87;;;0.50;;
1955;SDS011;978;48.314;11.562;2023-04-03T00:20:14;6.90;;;0.40;;
1955;SDS011;978;48.314;11.562;2023-04-03T00:22:42;7.07;;;0.60;;
1955;SDS011;978;48.314;11.562;2023-04-03T00:25:09;6.80;;;0.63;;
1955;SDS011;978;48.314;11.562;2023-04-03T00:27:36;6.80;;;0.50;;
1955;SDS011;978;48.314;11.562;2023-04-03T00:30:03;6.80;;;0.70;;
1955;SDS011;978;48.314;11.562;2023-04-03T00:32:30;6.73;;;0.50;;
1955;SDS011;978;48.314;11.562;2023-04-03T00:34:57;6.80;;;0.60;;
1955;SDS011;978;48.314;11.562;2023-04-03T00:37:24;6.70;;;0.50;;
1955;SDS011;978;48.314;11.562;2023-04-03T00:39:52;6.70;;;0.50;;
1955;SDS011;978;48.314;11.562;2023-04-03T00:42:19;6.70;;;0.50;;
1955;SDS011;978;48.314;11.562;2023-04-03T00:47:49;6.57;;;0.50;;
1955;SDS011;978;48.314;11.562;2023-04-03T00:50:16;6.53;;;0.60;;
1955;SDS011;978;48.314;11.562;2023-04-03T00:52:43;6.70;;;0.60;;
1955;SDS011;978;48.314;11.562;2023-04-03T00:55:15;6.60;;;0.57;;
1955;SDS011;978;48.314;11.562;2023-04-03T00:57:42;6.53;;;0.50;;
1955;SDS011;978;48.314;11.562;2023-04-03T01:00:12;6.57;;;0.60;;
1955;SDS011;978;48.314;11.562;2023-04-03T01:02:42;6.60;;;0.60;;
1955;SDS011;978;48.314;11.562;2023-04-03T01:05:10;6.50;;;0.50;;
1955;SDS011;978;48.314;11.562;2023-04-03T01:07:37;6.90;;;0.97;;
1955;SDS011;978;48.314;11.562;2023-04-03T01:10:06;6.73;;;0.63;;
1955;SDS011;978;48.314;11.562;2023-04-03T01:12:37;6.60;;;0.60;;
1955;SDS011;978;48.314;11.562;2023-04-03T01:15:05;6.30;;;0.50;;
1955;SDS011;978;48.314;11.562;2023-04-03T01:17:35;6.47;;;0.50;;
1955;SDS011;978;48.314;11.562;2023-04-03T01:20:16;6.33;;;0.60;;
1955;SDS011;978;48.314;11.562;2023-04-03T01:23:08;6.53;;;0.53;;
1955;SDS011;978;48.314;11.562;2023-04-03T01:25:44;6.43;;;0.60;;
1955;SDS011;978;48.314;11.562;2023-04-03T01:28:16;6.50;;;0.63;;
1955;SDS011;978;48.314;11.562;2023-04-03T01:30:45;6.43;;;0.50;;
1955;SDS011;978;48.314;11.562;2023-04-03T01:33:16;6.43;;;0.60;;
1955;SDS011;978;48.314;11.562;2023-04-03T01:35:43;6.30;;;0.40;;
1955;SDS011;978;48.314;11.562;2023-04-03T01:38:10;6.20;;;0.50;;
1955;SDS011;978;48.314;11.562;2023-04-03T01:40:36;6.20;;;0.50;;
1955;SDS011;978;48.314;11.562;2023-04-03T01:43:04;6.50;;;0.70;;
1955;SDS011;978;48.314;11.562;2023-04-03T01:45:30;6.30;;;0.40;;
1955;SDS011;978;48.314;11.562;2023-04-03T01:47:57;6.43;;;0.67;;
1955;SDS011;978;48.314;11.562;2023-04-03T01:50:25;6.60;;;0.90;;
1955;SDS011;978;48.314;11.562;2023-04-03T01:52:52;6.33;;;0.50;;
1955;SDS011;978;48.314;11.562;2023-04-03T01:55:18;6.13;;;0.60;;
1955;SDS011;978;48.314;11.562;2023-04-03T01:57:45;6.40;;;0.73;;
1955;SDS011;978;48.314;11.562;2023-04-03T02:00:12;6.20;;;0.50;;
1955;SDS011;978;48.314;11.562;2023-04-03T02:02:40;6.20;;;0.60;;
1955;SDS011;978;48.314;11.562;2023-04-03T02:05:06;5.97;;;0.50;;
1955;SDS011;978;48.314;11.562;2023-04-03T02:07:35;6.17;;;0.50;;
1955;SDS011;978;48.314;11.562;2023-04-03T02:10:02;6.27;;;0.57;;
1955;SDS011;978;48.314;11.562;2023-04-03T02:12:29;6.17;;;0.50;;
1955;SDS011;978;48.314;11.562;2023-04-03T02:14:56;6.10;;;0.50;;
1955;SDS011;978;48.314;11.562;2023-04-03T02:17:22;6.13;;;0.50;;
1955;SDS011;978;48.314;11.562;2023-04-03T02:19:49;6.10;;;0.50;;
1955;SDS011;978;48.314;11.562;2023-04-03T02:22:16;6.13;;;0.50;;
1955;SDS011;978;48.314;11.562;2023-04-03T02:24:44;6.13;;;0.50;;
1955;SDS011;978;48.314;11.562;2023-04-03T02:27:10;6.30;;;0.50;;
1955;SDS011;978;48.314;11.562;2023-04-03T02:29:37;6.20;;;0.40;;
1955;SDS011;978;48.314;11.562;2023-04-03T02:32:04;6.10;;;0.60;;
1955;SDS011;978;48.314;11.562;2023-04-03T02:34:31;6.13;;;0.40;;
1955;SDS011;978;48.314;11.562;2023-04-03T02:36:58;6.60;;;0.70;;
1955;SDS011;978;48.314;11.562;2023-04-03T02:39:25;6.10;;;0.50;;
1955;SDS011;978;48.314;11.562;2023-04-03T02:41:53;6.10;;;0.53;;
1955;SDS011;978;48.314;11.562;2023-04-03T02:44:20;6.20;;;0.53;;
1955;SDS011;978;48.314;11.562;2023-04-03T02:46:48;6.00;;;0.50;;
1955;SDS011;978;48.314;11.562;2023-04-03T02:49:15;6.20;;;0.63;;
1955;SDS011;978;48.314;11.562;2023-04-03T02:51:41;6.10;;;0.50;;
1955;SDS011;978;48.314;11.562;2023-04-03T02:54:08;6.20;;;0.50;;
1955;SDS011;978;48.314;11.562;2023-04-03T02:56:35;6.00;;;0.50;;
1955;SDS011;978;48.314;11.562;2023-04-03T02:59:03;6.07;;;0.83;;
1955;SDS011;978;48.314;11.562;2023-04-03T03:01:30;6.17;;;0.70;;
1955;SDS011;978;48.314;11.562;2023-04-03T03:03:57;6.17;;;0.50;;
1955;SDS011;978;48.314;11.562;2023-04-03T03:06:24;5.97;;;0.50;;
1955;SDS011;978;48.314;11.562;2023-04-03T03:08:51;5.97;;;0.50;;
1955;SDS011;978;48.314;11.562;2023-04-03T03:11:18;5.93;;;0.40;;
1955;SDS011;978;48.314;11.562;2023-04-03T03:13:45;5.90;;;0.50;;
1955;SDS011;978;48.314;11.562;2023-04-03T03:16:13;5.87;;;0.50;;
1955;SDS011;978;48.314;11.562;2023-04-03T03:18:39;6.23;;;0.73;;
1955;SDS011;978;48.314;11.562;2023-04-03T03:21:06;5.93;;;0.53;;
1955;SDS011;978;48.314;11.562;2023-04-03T03:23:34;5.97;;;0.50;;
1955;SDS011;978;48.314;11.562;2023-04-03T03:26:03;6.10;;;0.77;;
1955;SDS011;978;48.314;11.562;2023-04-03T03:28:30;5.83;;;0.40;;
1955;SDS011;978;48.314;11.562;2023-04-03T03:30:58;6.47;;;0.73;;
1955;SDS011;978;48.314;11.562;2023-04-03T03:33:26;5.87;;;0.40;;
1955;SDS011;978;48.314;11.562;2023-04-03T03:35:53;5.90;;;0.50;;
1955;SDS011;978;48.314;11.562;2023-04-03T03:38:20;5.80;;;0.43;;
1955;SDS011;978;48.314;11.562;2023-04-03T03:40:47;6.00;;;0.60;;
1955;SDS011;978;48.314;11.562;2023-04-03T03:43:15;5.97;;;0.57;;
1955;SDS011;978;48.314;11.562;2023-04-03T03:45:41;5.90;;;0.60;;
1955;SDS011;978;48.314;11.562;2023-04-03T03:48:08;5.90;;;0.50;;
1955;SDS011;978;48.314;11.562;2023-04-03T03:50:36;5.83;;;0.40;;
1955;SDS011;978;48.314;11.562;2023-04-03T03:53:03;5.77;;;0.47;;
1955;SDS011;978;48.314;11.562;2023-04-03T03:55:30;5.90;;;0.40;;
1955;SDS011;978;48.314;11.562;2023-04-03T03:57:56;5.97;;;0.70;;
1955;SDS011;978;48.314;11.562;2023-04-03T04:00:23;5.83;;;0.50;;
1955;SDS011;978;48.314;11.562;2023-04-03T04:02:50;5.90;;;0.50;;
1955;SDS011;978;48.314;11.562;2023-04-03T04:05:16;5.80;;;0.50;;
1955;SDS011;978;48.314;11.562;2023-04-03T04:07:45;5.83;;;0.50;;
1955;SDS011;978;48.314;11.562;2023-04-03T04:10:11;6.57;;;0.87;;
1955;SDS011;978;48.314;11.562;2023-04-03T04:12:39;5.80;;;0.50;;
1955;SDS011;978;48.314;11.562;2023-04-03T04:15:06;6.10;;;0.97;;
1955;SDS011;978;48.314;11.562;2023-04-03T04:17:33;5.77;;;0.43;;
1955;SDS011;978;48.314;11.562;2023-04-03T04:20:00;5.90;;;0.40;;
1955;SDS011;978;48.314;11.562;2023-04-03T04:22:27;5.73;;;0.50;;
1955;SDS011;978;48.314;11.562;2023-04-03T04:24:56;5.83;;;0.50;;
1955;SDS011;978;48.314;11.562;2023-04-03T04:27:22;6.00;;;0.83;;
1955;SDS011;978;48.314;11.562;2023-04-03T04:29:49;5.80;;;0.60;;
1955;SDS011;978;48.314;11.562;2023-04-03T04:32:16;5.80;;;0.63;;
1955;SDS011;978;48.314;11.562;2023-04-03T04:34:42;5.90;;;0.60;;
1955;SDS011;978;48.314;11.562;2023-04-03T04:37:09;5.73;;;0.50;;
1955;SDS011;978;48.314;11.562;2023-04-03T04:39:36;6.20;;;1.00;;
1955;SDS011;978;48.314;11.562;2023-04-03T04:42:04;5.77;;;0.40;;
1955;SDS011;978;48.314;11.562;2023-04-03T04:44:32;5.67;;;0.40;;
1955;SDS011;978;48.314;11.562;2023-04-03T04:46:59;5.90;;;0.77;;
1955;SDS011;978;48.314;11.562;2023-04-03T04:49:25;5.57;;;0.47;;
1955;SDS011;978;48.314;11.562;2023-04-03T04:51:52;5.70;;;0.50;;
1955;SDS011;978;48.314;11.562;2023-04-03T04:54:19;5.67;;;0.40;;
1955;SDS011;978;48.314;11.562;2023-04-03T04:56:46;5.80;;;0.60;;
1955;SDS011;978;48.314;11.562;2023-04-03T04:59:14;6.00;;;0.70;;
1955;SDS011;978;48.314;11.562;2023-04-03T05:01:41;5.73;;;0.50;;
1955;SDS011;978;48.314;11.562;2023-04-03T05:04:07;5.63;;;0.50;;
1955;SDS011;978;48.314;11.562;2023-04-03T05:06:35;5.87;;;0.50;;
1955;SDS011;978;48.314;11.562;2023-04-03T05:09:02;5.67;;;0.57;;
1955;SDS011;978;48.314;11.562;2023-04-03T05:11:28;5.57;;;0.40;;
1955;SDS011;978;48.314;11.562;2023-04-03T05:13:55;5.60;;;0.60;;
1955;SDS011;978;48.314;11.562;2023-04-03T05:16:23;5.60;;;0.50;;
1955;SDS011;978;48.314;11.562;2023-04-03T05:18:50;5.73;;;0.67;;
1955;SDS011;978;48.314;11.562;2023-04-03T05:21:17;5.80;;;0.83;;
1955;SDS011;978;48.314;11.562;2023-04-03T05:23:44;5.60;;;0.50;;
1955;SDS011;978;48.314;11.562;2023-04-03T05:26:10;5.50;;;0.50;;
1955;SDS011;978;48.314;11.562;2023-04-03T05:28:37;5.70;;;0.60;;
1955;SDS011;978;48.314;11.562;2023-04-03T05:31:04;6.10;;;0.80;;
1955;SDS011;978;48.314;11.562;2023-04-03T05:33:32;5.50;;;0.40;;
1955;SDS011;978;48.314;11.562;2023-04-03T05:36:01;5.60;;;0.60;;
1955;SDS011;978;48.314;11.562;2023-04-03T05:38:29;5.70;;;0.50;;
1955;SDS011;978;48.314;11.562;2023-04-03T05:40:56;5.90;;;0.40;;
1955;SDS011;978;48.314;11.562;2023-04-03T05:43:23;6.43;;;0.57;;
1955;SDS011;978;48.314;11.562;2023-04-03T05:45:50;6.17;;;0.40;;
1955;SDS011;978;48.314;11.562;2023-04-03T05:48:16;6.30;;;0.40;;
1955;SDS011;978;48.314;11.562;2023-04-03T05:50:45;6.97;;;0.70;;
1955;SDS011;978;48.314;11.562;2023-04-03T05:53:12;6.30;;;0.50;;
1955;SDS011;978;48.314;11.562;2023-04-03T05:55:43;6.47;;;0.90;;
1955;SDS011;978;48.314;11.562;2023-04-03T05:58:10;6.50;;;0.70;;
1955;SDS011;978;48.314;11.562;2023-04-03T06:00:37;6.03;;;0.50;;
1955;SDS011;978;48.314;11.562;2023-04-03T06:03:04;6.27;;;0.40;;
1955;SDS011;978;48.314;11.562;2023-04-03T06:05:31;6.23;;;0.50;;
1955;SDS011;978;48.314;11.562;2023-04-03T06:07:59;6.07;;;0.50;;
1955;SDS011;978;48.314;11.562;2023-04-03T06:10:26;6.23;;;0.50;;
1955;SDS011;978;48.314;11.562;2023-04-03T06:12:52;6.30;;;0.60;;
1955;SDS011;978;48.314;11.562;2023-04-03T06:15:19;6.40;;;0.50;;
1955;SDS011;978;48.314;11.562;2023-04-03T06:17:47;6.30;;;0.50;;
1955;SDS011;978;48.314;11.562;2023-04-03T06:20:13;6.40;;;0.50;;
1955;SDS011;978;48.314;11.562;2023-04-03T06:22:41;6.50;;;0.63;;
1955;SDS011;978;48.314;11.562;2023-04-03T06:25:09;6.30;;;0.60;;
1955;SDS011;978;48.314;11.562;2023-04-03T06:27:36;6.40;;;0.60;;
1955;SDS011;978;48.314;11.562;2023-04-03T06:30:03;6.20;;;0.50;;
1955;SDS011;978;48.314;11.562;2023-04-03T06:32:31;6.37;;;0.50;;
1955;SDS011;978;48.314;11.562;2023-04-03T06:34:58;6.47;;;0.70;;
1955;SDS011;978;48.314;11.562;2023-04-03T06:37:25;6.33;;;0.50;;
1955;SDS011;978;48.314;11.562;2023-04-03T06:39:53;6.60;;;0.90;;
1955;SDS011;978;48.314;11.562;2023-04-03T06:42:22;6.40;;;0.67;;
1955;SDS011;978;48.314;11.562;2023-04-03T06:44:49;6.50;;;0.70;;
1955;SDS011;978;48.314;11.562;2023-04-03T06:47:17;6.27;;;0.40;;
1955;SDS011;978;48.314;11.562;2023-04-03T06:49:44;6.30;;;0.50;;
1955;SDS011;978;48.314;11.562;2023-04-03T06:52:11;6.40;;;0.90;;
1955;SDS011;978;48.314;11.562;2023-04-03T06:54:38;6.20;;;0.50;;
1955;SDS011;978;48.314;11.562;2023-04-03T06:57:04;6.20;;;0.43;;
1955;SDS011;978;48.314;11.562;2023-04-03T06:59:33;6.40;;;0.60;;
1955;SDS011;978;48.314;11.562;2023-04-03T07:02:00;6.27;;;0.40;;
1955;SDS011;978;48.314;11.562;2023-04-03T07:04:26;6.10;;;0.40;;
1955;SDS011;978;48.314;11.562;2023-04-03T07:06:53;6.40;;;0.50;;
1955;SDS011;978;48.314;11.562;2023-04-03T07:09:20;6.47;;;0.60;;
1955;SDS011;978;48.314;11.562;2023-04-03T07:11:46;6.50;;;0.80;;
1955;SDS011;978;48.314;11.562;2023-04-03T07:14:13;6.30;;;0.60;;
1955;SDS011;978;48.314;11.562;2023-04-03T07:16:41;6.30;;;0.50;;
1955;SDS011;978;48.314;11.562;2023-04-03T07:19:08;6.17;;;0.53;;
1955;SDS011;978;48.314;11.562;2023-04-03T07:21:34;6.30;;;0.67;;
1955;SDS011;978;48.314;11.562;2023-04-03T07:24:01;6.23;;;0.50;;
1955;SDS011;978;48.314;11.562;2023-04-03T07:26:28;6.20;;;0.50;;
1955;SDS011;978;48.314;11.562;2023-04-03T07:28:55;6.17;;;0.50;;
1955;SDS011;978;48.314;11.562;2023-04-03T07:31:22;6.20;;;0.60;;
1955;SDS011;978;48.314;11.562;2023-04-03T07:33:51;6.07;;;0.40;;
1955;SDS011;978;48.314;11.562;2023-04-03T07:36:19;6.37;;;0.60;;
1955;SDS011;978;48.314;11.562;2023-04-03T07:38:47;6.20;;;0.50;;
1955;SDS011;978;48.314;11.562;2023-04-03T07:41:15;6.40;;;1.30;;
1955;SDS011;978;48.314;11.562;2023-04-03T07:43:43;6.17;;;0.60;;
1955;SDS011;978;48.314;11.562;2023-04-03T07:46:12;6.10;;;0.53;;
1955;SDS011;978;48.314;11.562;2023-04-03T07:48:38;6.10;;;0.60;;
1955;SDS011;978;48.314;11.562;2023-04-03T07:51:06;6.03;;;0.50;;
1955;SDS011;978;48.314;11.562;2023-04-03T07:53:33;8.03;;;1.07;;
1955;SDS011;978;48.314;11.562;2023-04-03T07:56:00;6.10;;;0.50;;
1955;SDS011;978;48.314;11.562;2023-04-03T07:58:28;6.17;;;0.53;;
1955;SDS011;978;48.314;11.562;2023-04-03T08:00:54;6.27;;;0.50;;
1955;SDS011;978;48.314;11.562;2023-04-03T08:03:21;6.20;;;0.63;;
1955;SDS011;978;48.314;11.562;2023-04-03T08:05:48;5.83;;;0.47;;
1955;SDS011;978;48.314;11.562;2023-04-03T08:08:17;5.50;;;0.57;;
1955;SDS011;978;48.314;11.562;2023-04-03T08:10:47;5.30;;;0.60;;
1955;SDS011;978;48.314;11.562;2023-04-03T08:13:16;5.10;;;0.50;;
1955;SDS011;978;48.314;11.562;2023-04-03T08:15:42;5.00;;;0.47;;
1955;SDS011;978;48.314;11.562;2023-04-03T08:18:09;5.20;;;0.60;;
1955;SDS011;978;48.314;11.562;2023-04-03T08:20:37;5.03;;;0.50;;
1955;SDS011;978;48.314;11.562;2023-04-03T08:23:05;4.90;;;0.47;;
1955;SDS011;978;48.314;11.562;2023-04-03T08:25:33;5.10;;;0.70;;
1955;SDS011;978;48.314;11.562;2023-04-03T08:28:00;4.80;;;0.40;;
1955;SDS011;978;48.314;11.562;2023-04-03T08:30:27;4.87;;;0.53;;
1955;SDS011;978;48.314;11.562;2023-04-03T08:32:53;4.80;;;0.40;;
1955;SDS011;978;48.314;11.562;2023-04-03T08:35:20;4.80;;;0.47;;
1955;SDS011;978;48.314;11.562;2023-04-03T08:37:47;4.80;;;0.40;;
1955;SDS011;978;48.314;11.562;2023-04-03T08:40:14;5.00;;;0.70;;
1955;SDS011;978;48.314;11.562;2023-04-03T08:42:47;4.80;;;0.50;;
1955;SDS011;978;48.314;11.562;2023-04-03T08:45:33;4.73;;;0.50;;
1955;SDS011;978;48.314;11.562;2023-04-03T08:48:08;4.80;;;0.60;;
1955;SDS011;978;48.314;11.562;2023-04-03T08:50:41;4.80;;;0.50;;
1955;SDS011;978;48.314;11.562;2023-04-03T08:53:12;4.70;;;0.50;;
1955;SDS011;978;48.314;11.562;2023-04-03T08:55:42;4.70;;;0.50;;
1955;SDS011;978;48.314;11.562;2023-04-03T08:58:13;4.60;;;0.50;;
1955;SDS011;978;48.314;11.562;2023-04-03T09:00:44;4.60;;;0.40;;
1955;SDS011;978;48.314;11.562;2023-04-03T09:03:14;4.60;;;0.50;;
1955;SDS011;978;48.314;11.562;2023-04-03T09:05:43;4.67;;;0.60;;
1955;SDS011;978;48.314;11.562;2023-04-03T09:08:18;4.70;;;0.50;;
1955;SDS011;978;48.314;11.562;2023-04-03T09:10:51;4.60;;;0.50;;
1955;SDS011;978;48.314;11.562;2023-04-03T09:13:26;4.57;;;0.40;;
1955;SDS011;978;48.314;11.562;2023-04-03T09:15:59;4.77;;;0.67;;
1955;SDS011;978;48.314;11.562;2023-04-03T09:18:32;4.50;;;0.60;;
1955;SDS011;978;48.314;11.562;2023-04-03T09:21:07;4.70;;;0.60;;
1955;SDS011;978;48.314;11.562;2023-04-03T09:23:42;4.70;;;0.70;;
1955;SDS011;978;48.314;11.562;2023-04-03T09:26:13;4.60;;;0.60;;
1955;SDS011;978;48.314;11.562;2023-04-03T09:28:44;4.80;;;0.80;;
1955;SDS011;978;48.314;11.562;2023-04-03T09:31:14;4.60;;;0.63;;
1955;SDS011;978;48.314;11.562;2023-04-03T09:33:45;4.57;;;0.40;;
1955;SDS011;978;48.314;11.562;2023-04-03T09:36:13;4.70;;;0.70;;
1955;SDS011;978;48.314;11.562;2023-04-03T09:39:04;4.57;;;0.60;;
1955;SDS011;978;48.314;11.562;2023-04-03T09:41:32;4.97;;;1.03;;
1955;SDS011;978;48.314;11.562;2023-04-03T09:44:01;4.60;;;0.40;;
1955;SDS011;978;48.314;11.562;2023-04-03T09:46:31;4.80;;;0.80;;
1955;SDS011;978;48.314;11.562;2023-04-03T09:49:00;5.00;;;0.70;;
1955;SDS011;978;48.314;11.562;2023-04-03T09:51:29;4.60;;;0.60;;
1955;SDS011;978;48.314;11.562;2023-04-03T09:53:56;5.47;;;0.90;;
1955;SDS011;978;48.314;11.562;2023-04-03T09:56:24;4.50;;;0.60;;
1955;SDS011;978;48.314;11.562;2023-04-03T09:59:08;4.40;;;0.40;;
1955;SDS011;978;48.314;11.562;2023-04-03T10:01:42;4.50;;;0.67;;
1955;SDS011;978;48.314;11.562;2023-04-03T10:04:22;4.30;;;0.50;;
1955;SDS011;978;48.314;11.562;2023-04-03T10:06:50;4.40;;;0.50;;
1955;SDS011;978;48.314;11.562;2023-04-03T10:09:19;4.30;;;0.40;;
1955;SDS011;978;48.314;11.562;2023-04-03T10:11:58;4.30;;;0.50;;
1955;SDS011;978;48.314;11.562;2023-04-03T10:14:28;4.30;;;0.47;;
1955;SDS011;978;48.314;11.562;2023-04-03T10:16:57;4.30;;;0.60;;
1955;SDS011;978;48.314;11.562;2023-04-03T10:19:34;4.30;;;0.50;;
1955;SDS011;978;48.314;11.562;2023-04-03T10:22:09;4.80;;;0.97;;
1955;SDS011;978;48.314;11.562;2023-04-03T10:24:44;4.30;;;0.50;;
1955;SDS011;978;48.314;11.562;2023-04-03T10:27:20;4.23;;;0.50;;
1955;SDS011;978;48.314;11.562;2023-04-03T10:29:59;4.30;;;0.50;;
1955;SDS011;978;48.314;11.562;2023-04-03T10:32:48;4.40;;;0.40;;
1955;SDS011;978;48.314;11.562;2023-04-03T10:35:25;4.47;;;0.60;;
1955;SDS011;978;48.314;11.562;2023-04-03T10:38:03;4.30;;;0.60;;
1955;SDS011;978;48.314;11.562;2023-04-03T10:40:37;4.23;;;0.50;;
1955;SDS011;978;48.314;11.562;2023-04-03T10:43:13;4.30;;;0.50;;
1955;SDS011;978;48.314;11.562;2023-04-03T10:45:53;4.23;;;0.50;;
1955;SDS011;978;48.314;11.562;2023-04-03T10:48:30;4.20;;;0.40;;
1955;SDS011;978;48.314;11.562;2023-04-03T10:51:07;4.37;;;0.53;;
1955;SDS011;978;48.314;11.562;2023-04-03T10:53:43;4.40;;;0.60;;
1955;SDS011;978;48.314;11.562;2023-04-03T10:56:17;4.30;;;0.50;;
1955;SDS011;978;48.314;11.562;2023-04-03T10:58:54;4.30;;;0.70;;
1955;SDS011;978;48.314;11.562;2023-04-03T11:01:26;4.30;;;0.50;;
1955;SDS011;978;48.314;11.562;2023-04-03T11:03:58;4.70;;;1.07;;
1955;SDS011;978;48.314;11.562;2023-04-03T11:06:27;4.40;;;0.83;;
1955;SDS011;978;48.314;11.562;2023-04-03T11:09:02;4.23;;;0.40;;
1955;SDS011;978;48.314;11.562;2023-04-03T11:11:36;4.23;;;0.50;;
1955;SDS011;978;48.314;11.562;2023-04-03T11:14:09;4.33;;;0.50;;
1955;SDS011;978;48.314;11.562;2023-04-03T11:16:43;4.40;;;0.70;;
1955;SDS011;978;48.314;11.562;2023-04-03T11:19:14;4.20;;;0.50;;
1955;SDS011;978;48.314;11.562;2023-04-03T11:21:49;4.23;;;0.40;;
1955;SDS011;978;48.314;11.562;2023-04-03T11:24:22;4.37;;;0.60;;
1955;SDS011;978;48.314;11.562;2023-04-03T11:26:51;4.60;;;0.80;;
1955;SDS011;978;48.314;11.562;2023-04-03T11:29:22;4.30;;;0.50;;
1955;SDS011;978;48.314;11.562;2023-04-03T11:32:00;4.20;;;0.43;;
1955;SDS011;978;48.314;11.562;2023-04-03T11:34:36;4.20;;;0.40;;
1955;SDS011;978;48.314;11.562;2023-04-03T11:37:11;4.40;;;0.70;;
1955;SDS011;978;48.314;11.562;2023-04-03T11:39:45;4.20;;;0.40;;
1955;SDS011;978;48.314;11.562;2023-04-03T11:42:27;4.40;;;0.70;;
1955;SDS011;978;48.314;11.562;2023-04-03T11:45:23;4.30;;;0.50;;
1955;SDS011;978;48.314;11.562;2023-04-03T11:48:00;4.30;;;0.40;;
1955;SDS011;978;48.314;11.562;2023-04-03T11:50:38;4.30;;;0.60;;
1955;SDS011;978;48.314;11.562;2023-04-03T11:55:55;4.30;;;0.50;;
1955;SDS011;978;48.314;11.562;2023-04-03T11:58:27;4.50;;;0.70;;
1955;SDS011;978;48.314;11.562;2023-04-03T12:01:08;4.40;;;0.67;;
1955;SDS011;978;48.314;11.562;2023-04-03T12:09:26;4.27;;;0.40;;
1955;SDS011;978;48.314;11.562;2023-04-03T12:12:28;4.30;;;0.50;;
1955;SDS011;978;48.314;11.562;2023-04-03T12:15:11;4.30;;;0.50;;
1955;SDS011;978;48.314;11.562;2023-04-03T12:17:47;4.27;;;0.40;;
1955;SDS011;978;48.314;11.562;2023-04-03T12:23:28;4.77;;;0.60;;
1955;SDS011;978;48.314;11.562;2023-04-03T12:26:02;4.30;;;0.60;;
1955;SDS011;978;48.314;11.562;2023-04-03T12:28:46;4.43;;;0.80;;
1955;SDS011;978;48.314;11.562;2023-04-03T12:31:15;4.60;;;0.80;;
1955;SDS011;978;48.314;11.562;2023-04-03T12:33:47;4.30;;;0.50;;
1955;SDS011;978;48.314;11.562;2023-04-03T12:36:29;4.47;;;0.80;;
1955;SDS011;978;48.314;11.562;2023-04-03T12:39:09;4.50;;;0.73;;
1955;SDS011;978;48.314;11.562;2023-04-03T12:41:43;4.30;;;0.43;;
1955;SDS011;978;48.314;11.562;2023-04-03T12:44:22;4.40;;;0.77;;
1955;SDS011;978;48.314;11.562;2023-04-03T12:47:02;4.50;;;0.73;;
1955;SDS011;978;48.314;11.562;2023-04-03T12:49:45;4.40;;;0.70;;
1955;SDS011;978;48.314;11.562;2023-04-03T12:52:17;4.27;;;0.40;;
1955;SDS011;978;48.314;11.562;2023-04-03T12:54:50;4.30;;;0.40;;
1955;SDS011;978;48.314;11.562;2023-04-03T12:57:18;4.27;;;0.40;;
1955;SDS011;978;48.314;11.562;2023-04-03T12:59:45;4.40;;;0.50;;
1955;SDS011;978;48.314;11.562;2023-04-03T13:02:17;4.30;;;0.40;;
1955;SDS011;978;48.314;11.562;2023-04-03T13:04:48;4.23;;;0.50;;
1955;SDS011;978;48.314;11.562;2023-04-03T13:07:19;4.27;;;0.50;;
1955;SDS011;978;48.314;11.562;2023-04-03T13:09:57;4.33;;;0.50;;
1955;SDS011;978;48.314;11.562;2023-04-03T13:12:25;4.40;;;0.60;;
1955;SDS011;978;48.314;11.562;2023-04-03T13:14:52;4.40;;;0.70;;
1955;SDS011;978;48.314;11.562;2023-04-03T13:17:21;4.33;;;0.50;;
1955;SDS011;978;48.314;11.562;2023-04-03T13:19:48;4.30;;;0.40;;
1955;SDS011;978;48.314;11.562;2023-04-03T13:22:19;4.30;;;0.47;;
1955;SDS011;978;48.314;11.562;2023-04-03T13:24:54;4.40;;;0.50;;
1955;SDS011;978;48.314;11.562;2023-04-03T13:27:24;4.50;;;0.70;;
1955;SDS011;978;48.314;11.562;2023-04-03T13:29:53;5.13;;;1.27;;
1955;SDS011;978;48.314;11.562;2023-04-03T13:32:23;4.70;;;0.70;;
1955;SDS011;978;48.314;11.562;2023-04-03T13:34:52;4.33;;;0.43;;
1955;SDS011;978;48.314;11.562;2023-04-03T13:37:20;4.23;;;0.43;;
1955;SDS011;978;48.314;11.562;2023-04-03T13:39:58;4.30;;;0.50;;
1955;SDS011;978;48.314;11.562;2023-04-03T13:42:28;4.30;;;0.60;;
1955;SDS011;978;48.314;11.562;2023-04-03T13:45:11;4.37;;;0.50;;
1955;SDS011;978;48.314;11.562;2023-04-03T13:47:45;4.40;;;0.50;;
1955;SDS011;978;48.314;11.562;2023-04-03T13:50:14;5.57;;;1.10;;
1955;SDS011;978;48.314;11.562;2023-04-03T13:52:43;4.30;;;0.40;;
1955;SDS011;978;48.314;11.562;2023-04-03T13:55:17;4.30;;;0.50;;
1955;SDS011;978;48.314;11.562;2023-04-03T13:57:51;4.70;;;0.93;;
1955;SDS011;978;48.314;11.562;2023-04-03T14:00:32;5.00;;;0.97;;
1955;SDS011;978;48.314;11.562;2023-04-03T14:03:03;4.40;;;0.70;;
1955;SDS011;978;48.314;11.562;2023-04-03T14:05:37;4.40;;;0.50;;
1955;SDS011;978;48.314;11.562;2023-04-03T14:08:04;4.40;;;0.50;;
1955;SDS011;978;48.314;11.562;2023-04-03T14:10:33;4.50;;;0.50;;
1955;SDS011;978;48.314;11.562;2023-04-03T14:13:01;4.50;;;0.60;;
1955;SDS011;978;48.314;11.562;2023-04-03T14:15:28;4.60;;;0.80;;
1955;SDS011;978;48.314;11.562;2023-04-03T14:17:57;4.37;;;0.50;;
1955;SDS011;978;48.314;11.562;2023-04-03T14:20:25;4.30;;;0.50;;
1955;SDS011;978;48.314;11.562;2023-04-03T14:22:52;4.33;;;0.40;;
1955;SDS011;978;48.314;11.562;2023-04-03T14:25:20;4.40;;;0.60;;
1955;SDS011;978;48.314;11.562;2023-04-03T14:27:50;4.33;;;0.50;;
1955;SDS011;978;48.314;11.562;2023-04-03T14:30:19;4.70;;;0.80;;
1955;SDS011;978;48.314;11.562;2023-04-03T14:32:48;5.03;;;1.00;;
1955;SDS011;978;48.314;11.562;2023-04-03T14:35:15;4.30;;;0.40;;
1955;SDS011;978;48.314;11.562;2023-04-03T14:37:43;4.40;;;0.50;;
1955;SDS011;978;48.314;11.562;2023-04-03T14:40:11;4.33;;;0.40;;
1955;SDS011;978;48.314;11.562;2023-04-03T14:42:40;5.40;;;1.50;;
1955;SDS011;978;48.314;11.562;2023-04-03T14:45:09;4.40;;;0.50;;
1955;SDS011;978;48.314;11.562;2023-04-03T14:47:39;4.33;;;0.50;;
1955;SDS011;978;48.314;11.562;2023-04-03T14:50:11;4.33;;;0.40;;
1955;SDS011;978;48.314;11.562;2023-04-03T14:52:40;4.40;;;0.40;;
1955;SDS011;978;48.314;11.562;2023-04-03T14:55:08;4.70;;;0.70;;
1955;SDS011;978;48.314;11.562;2023-04-03T14:57:35;5.37;;;0.67;;
1955;SDS011;978;48.314;11.562;2023-04-03T15:00:04;4.40;;;0.40;;
1955;SDS011;978;48.314;11.562;2023-04-03T15:02:38;4.50;;;0.60;;
1955;SDS011;978;48.314;11.562;2023-04-03T15:05:06;4.40;;;0.50;;
1955;SDS011;978;48.314;11.562;2023-04-03T15:07:34;4.50;;;0.50;;
1955;SDS011;978;48.314;11.562;2023-04-03T15:10:05;4.47;;;0.50;;
1955;SDS011;978;48.314;11.562;2023-04-03T15:12:41;4.40;;;0.40;;
1955;SDS011;978;48.314;11.562;2023-04-03T15:15:10;4.47;;;0.50;;
1955;SDS011;978;48.314;11.562;2023-04-03T15:17:37;4.50;;;0.40;;
1955;SDS011;978;48.314;11.562;2023-04-03T15:20:05;4.50;;;0.50;;
1955;SDS011;978;48.314;11.562;2023-04-03T15:22:39;4.50;;;0.50;;
1955;SDS011;978;48.314;11.562;2023-04-03T15:25:06;4.50;;;0.50;;
1955;SDS011;978;48.314;11.562;2023-04-03T15:27:33;4.50;;;0.50;;
1955;SDS011;978;48.314;11.562;2023-04-03T15:30:00;4.50;;;0.60;;
1955;SDS011;978;48.314;11.562;2023-04-03T15:32:28;4.57;;;0.63;;
1955;SDS011;978;48.314;11.562;2023-04-03T15:34:55;4.50;;;0.50;;
1955;SDS011;978;48.314;11.562;2023-04-03T15:37:21;4.53;;;0.50;;
1955;SDS011;978;48.314;11.562;2023-04-03T15:39:48;4.50;;;0.40;;
1955;SDS011;978;48.314;11.562;2023-04-03T15:42:15;4.43;;;0.40;;
1955;SDS011;978;48.314;11.562;2023-04-03T15:44:41;4.50;;;0.60;;